sensor_id;sensor_type;location;lat;lon;timestamp;pressure;altitude;pressure_sealevel;temperature;humidity
3654;BME280;70277;54.302;10.064;2023-12-20T00:01:03;100540.94;;;7.17;80.27
3654;BME280;70277;54.302;10.064;2023-12-20T00:03:29;100538.00;;;6.77;81.34
3654;BME280;70277;54.302;10.064;2023-12-20T00:06:08;100529.81;;;7.14;80.74
3654;BME280;70277;54.302;10.064;2023-12-20T00:08:35;100528.78;;;7.26;80.07
3654;BME280;70277;54.302;10.064;2023-12-20T00:11:01;100535.19;;;7.14;80.14
3654;BME280;70277;54.302;10.064;2023-12-20T00:13:28;100541.75;;;7.18;79.99
3654;BME280;70277;54.302;10.064;2023-12-20T00:15:54;100527.25;;;7.42;79.54
3654;BME280;70277;54.302;10.064;2023-12-20T00:18:21;100513.88;;;7.12;80.69
3654;BME280;70277;54.302;10.064;2023-12-20T00:20:48;100518.34;;;7.30;80.65
3654;BME280;70277;54.302;10.064;2023-12-20T00:23:14;100524.13;;;7.45;80.37
3654;BME280;70277;54.302;10.064;2023-12-20T00:25:41;100505.25;;;7.22;81.00
3654;BME280;70277;54.302;10.064;2023-12-20T00:28:07;100503.94;;;7.24;80.44
3654;BME280;70277;54.302;10.064;2023-12-20T00:30:34;100496.09;;;6.99;81.22
3654;BME280;70277;54.302;10.064;2023-12-20T00:33:00;100498.09;;;7.16;80.22
3654;BME280;70277;54.302;10.064;2023-12-20T00:35:27;100501.28;;;7.60;79.81
3654;BME280;70277;54.302;10.064;2023-12-20T00:37:54;100492.50;;;7.29;80.49
3654;BME280;70277;54.302;10.064;2023-12-20T00:40:20;100500.25;;;7.37;79.81
3654;BME280;70277;54.302;10.064;2023-12-20T00:42:47;100494.72;;;7.20;80.38
3654;BME280;70277;54.302;10.064;2023-12-20T00:45:14;100489.94;;;7.34;79.99
3654;BME280;70277;54.302;10.064;2023-12-20T00:47:41;100481.25;;;7.44;79.38
3654;BME280;70277;54.302;10.064;2023-12-20T00:50:08;100486.75;;;7.14;80.18
3654;BME280;70277;54.302;10.064;2023-12-20T00:52:35;100484.41;;;7.17;80.75
3654;BME280;70277;54.302;10.064;2023-12-20T00:55:02;100483.81;;;7.15;80.64
3654;BME280;70277;54.302;10.064;2023-12-20T00:57:30;100482.41;;;7.24;79.97
3654;BME280;70277;54.302;10.064;2023-12-20T00:59:57;100485.34;;;7.11;80.38
3654;BME280;70277;54.302;10.064;2023-12-20T01:02:24;100488.84;;;7.12;80.76
3654;BME280;70277;54.302;10.064;2023-12-20T01:04:51;100482.03;;;6.97;81.38
3654;BME280;70277;54.302;10.064;2023-12-20T01:07:17;100490.47;;;7.13;80.84
3654;BME280;70277;54.302;10.064;2023-12-20T01:09:44;100488.50;;;7.08;80.91
3654;BME280;70277;54.302;10.064;2023-12-20T01:12:10;100492.50;;;7.17;80.07
3654;BME280;70277;54.302;10.064;2023-12-20T01:14:37;100485.34;;;6.99;80.99
3654;BME280;70277;54.302;10.064;2023-12-20T01:17:05;100477.03;;;6.89;81.26
3654;BME280;70277;54.302;10.064;2023-12-20T01:19:32;100464.72;;;6.93;81.63
3654;BME280;70277;54.302;10.064;2023-12-20T01:21:59;100480.91;;;7.40;80.45
3654;BME280;70277;54.302;10.064;2023-12-20T01:24:25;100469.44;;;7.21;80.67
3654;BME280;70277;54.302;10.064;2023-12-20T01:26:52;100460.41;;;7.27;81.21
3654;BME280;70277;54.302;10.064;2023-12-20T01:29:18;100464.06;;;7.33;81.45
3654;BME280;70277;54.302;10.064;2023-12-20T01:31:45;100466.25;;;7.01;82.16
3654;BME280;70277;54.302;10.064;2023-12-20T01:34:12;100466.84;;;7.03;82.27
3654;BME280;70277;54.302;10.064;2023-12-20T01:36:38;100462.06;;;7.05;82.80
3654;BME280;70277;54.302;10.064;2023-12-20T01:39:05;100463.00;;;7.22;82.39
3654;BME280;70277;54.302;10.064;2023-12-20T01:41:46;100455.50;;;7.01;82.19
3654;BME280;70277;54.302;10.064;2023-12-20T01:44:13;100448.97;;;7.09;82.75
3654;BME280;70277;54.302;10.064;2023-12-20T01:46:39;100444.84;;;7.41;82.30
3654;BME280;70277;54.302;10.064;2023-12-20T01:49:07;100427.19;;;6.98;82.54
3654;BME280;70277;54.302;10.064;2023-12-20T01:51:34;100429.44;;;7.01;82.56
3654;BME280;70277;54.302;10.064;2023-12-20T01:54:02;100429.19;;;7.15;82.12
3654;BME280;70277;54.302;10.064;2023-12-20T01:56:28;100432.34;;;7.23;82.08
3654;BME280;70277;54.302;10.064;2023-12-20T01:58:56;100431.19;;;7.31;81.92
3654;BME280;70277;54.302;10.064;2023-12-20T02:01:23;100417.22;;;7.58;80.92
3654;BME280;70277;54.302;10.064;2023-12-20T02:03:49;100424.94;;;7.42;81.33
3654;BME280;70277;54.302;10.064;2023-12-20T02:06:18;100415.13;;;7.36;81.67
3654;BME280;70277;54.302;10.064;2023-12-20T02:08:44;100415.25;;;7.41;81.36
3654;BME280;70277;54.302;10.064;2023-12-20T02:11:11;100421.31;;;7.60;80.59
3654;BME280;70277;54.302;10.064;2023-12-20T02:13:38;100411.38;;;7.61;80.43
3654;BME280;70277;54.302;10.064;2023-12-20T02:16:04;100411.47;;;7.42;80.86
3654;BME280;70277;54.302;10.064;2023-12-20T02:18:31;100400.75;;;7.31;81.00
3654;BME280;70277;54.302;10.064;2023-12-20T02:20:58;100403.81;;;7.11;81.43
3654;BME280;70277;54.302;10.064;2023-12-20T02:23:25;100401.31;;;7.44;81.57
3654;BME280;70277;54.302;10.064;2023-12-20T02:25:51;100401.69;;;7.13;81.74
3654;BME280;70277;54.302;10.064;2023-12-20T02:28:18;100405.78;;;7.27;82.13
3654;BME280;70277;54.302;10.064;2023-12-20T02:30:45;100397.22;;;7.18;81.94
3654;BME280;70277;54.302;10.064;2023-12-20T02:33:12;100386.72;;;7.17;81.38
3654;BME280;70277;54.302;10.064;2023-12-20T02:35:39;100376.44;;;7.14;81.56
3654;BME280;70277;54.302;10.064;2023-12-20T02:38:06;100384.25;;;7.27;81.95
3654;BME280;70277;54.302;10.064;2023-12-20T02:40:32;100376.41;;;7.25;80.98
3654;BME280;70277;54.302;10.064;2023-12-20T02:42:59;100374.53;;;7.38;81.46
3654;BME280;70277;54.302;10.064;2023-12-20T02:45:26;100373.72;;;7.37;81.23
3654;BME280;70277;54.302;10.064;2023-12-20T02:47:53;100371.59;;;7.27;82.13
3654;BME280;70277;54.302;10.064;2023-12-20T02:50:20;100381.22;;;7.12;82.42
3654;BME280;70277;54.302;10.064;2023-12-20T02:52:46;100372.91;;;7.13;83.14
3654;BME280;70277;54.302;10.064;2023-12-20T02:55:13;100352.84;;;7.44;82.43
3654;BME280;70277;54.302;10.064;2023-12-20T02:57:39;100358.28;;;7.21;82.38
3654;BME280;70277;54.302;10.064;2023-12-20T03:00:12;100340.03;;;6.99;82.91
3654;BME280;70277;54.302;10.064;2023-12-20T03:02:39;100344.56;;;7.34;82.42
3654;BME280;70277;54.302;10.064;2023-12-20T03:05:06;100329.88;;;7.13;82.83
3654;BME280;70277;54.302;10.064;2023-12-20T03:07:33;100335.59;;;6.93;83.57
3654;BME280;70277;54.302;10.064;2023-12-20T03:09:59;100331.16;;;6.99;83.88
3654;BME280;70277;54.302;10.064;2023-12-20T03:12:45;100329.03;;;7.13;83.66
3654;BME280;70277;54.302;10.064;2023-12-20T03:15:11;100325.66;;;7.05;83.32
3654;BME280;70277;54.302;10.064;2023-12-20T03:17:38;100318.38;;;7.18;83.88
3654;BME280;70277;54.302;10.064;2023-12-20T03:20:05;100315.59;;;7.01;84.15
3654;BME280;70277;54.302;10.064;2023-12-20T03:22:32;100310.50;;;7.40;83.60
3654;BME280;70277;54.302;10.064;2023-12-20T03:24:58;100309.28;;;7.19;83.80
3654;BME280;70277;54.302;10.064;2023-12-20T03:27:25;100297.91;;;7.17;84.34
3654;BME280;70277;54.302;10.064;2023-12-20T03:29:51;100290.16;;;7.32;84.05
3654;BME280;70277;54.302;10.064;2023-12-20T03:32:18;100297.38;;;7.43;84.18
3654;BME280;70277;54.302;10.064;2023-12-20T03:34:44;100293.91;;;7.31;83.83
3654;BME280;70277;54.302;10.064;2023-12-20T03:37:11;100288.47;;;7.43;84.12
3654;BME280;70277;54.302;10.064;2023-12-20T03:39:38;100286.91;;;7.59;83.36
3654;BME280;70277;54.302;10.064;2023-12-20T03:42:04;100293.69;;;7.21;84.05
3654;BME280;70277;54.302;10.064;2023-12-20T03:44:31;100276.56;;;7.27;84.29
3654;BME280;70277;54.302;10.064;2023-12-20T03:46:57;100281.06;;;7.10;85.52
3654;BME280;70277;54.302;10.064;2023-12-20T03:49:24;100271.47;;;7.14;84.99
3654;BME280;70277;54.302;10.064;2023-12-20T03:51:50;100264.84;;;7.04;85.18
3654;BME280;70277;54.302;10.064;2023-12-20T03:54:17;100256.31;;;6.84;84.81
3654;BME280;70277;54.302;10.064;2023-12-20T03:56:43;100254.63;;;7.06;83.23
3654;BME280;70277;54.302;10.064;2023-12-20T03:59:10;100246.44;;;7.13;82.76
3654;BME280;70277;54.302;10.064;2023-12-20T04:01:36;100258.66;;;7.33;82.55
3654;BME280;70277;54.302;10.064;2023-12-20T04:04:03;100259.31;;;7.11;81.78
3654;BME280;70277;54.302;10.064;2023-12-20T04:06:30;100256.78;;;7.33;81.38
3654;BME280;70277;54.302;10.064;2023-12-20T04:08:57;100261.84;;;7.18;81.99
3654;BME280;70277;54.302;10.064;2023-12-20T04:11:23;100240.97;;;6.96;82.95
3654;BME280;70277;54.302;10.064;2023-12-20T04:13:50;100253.59;;;7.07;83.96
3654;BME280;70277;54.302;10.064;2023-12-20T04:16:16;100245.63;;;7.01;84.00
3654;BME280;70277;54.302;10.064;2023-12-20T04:18:43;100249.28;;;6.95;84.61
3654;BME280;70277;54.302;10.064;2023-12-20T04:21:09;100249.53;;;6.93;84.13
3654;BME280;70277;54.302;10.064;2023-12-20T04:23:36;100240.44;;;6.71;84.31
3654;BME280;70277;54.302;10.064;2023-12-20T04:26:03;100252.13;;;6.65;84.78
3654;BME280;70277;54.302;10.064;2023-12-20T04:28:29;100230.38;;;6.78;84.37
3654;BME280;70277;54.302;10.064;2023-12-20T04:30:58;100240.44;;;6.71;82.87
3654;BME280;70277;54.302;10.064;2023-12-20T04:33:25;100236.31;;;6.80;82.00
3654;BME280;70277;54.302;10.064;2023-12-20T04:35:52;100240.22;;;6.60;82.00
3654;BME280;70277;54.302;10.064;2023-12-20T04:38:18;100228.91;;;7.11;81.46
3654;BME280;70277;54.302;10.064;2023-12-20T04:40:45;100232.44;;;6.99;81.84
3654;BME280;70277;54.302;10.064;2023-12-20T04:43:11;100227.16;;;7.04;80.89
3654;BME280;70277;54.302;10.064;2023-12-20T04:45:38;100233.94;;;7.07;80.89
3654;BME280;70277;54.302;10.064;2023-12-20T04:48:05;100236.19;;;6.98;81.19
3654;BME280;70277;54.302;10.064;2023-12-20T04:50:32;100231.50;;;7.34;80.67
3654;BME280;70277;54.302;10.064;2023-12-20T04:52:59;100218.13;;;7.11;81.41
3654;BME280;70277;54.302;10.064;2023-12-20T04:55:26;100223.59;;;7.16;81.55
3654;BME280;70277;54.302;10.064;2023-12-20T04:57:52;100224.88;;;7.25;82.55
3654;BME280;70277;54.302;10.064;2023-12-20T05:00:19;100219.50;;;7.25;82.74
3654;BME280;70277;54.302;10.064;2023-12-20T05:02:46;100227.28;;;7.38;82.92
3654;BME280;70277;54.302;10.064;2023-12-20T05:05:12;100211.88;;;7.50;82.91
3654;BME280;70277;54.302;10.064;2023-12-20T05:07:41;100213.22;;;7.36;83.01
3654;BME280;70277;54.302;10.064;2023-12-20T05:10:08;100207.78;;;7.48;82.96
3654;BME280;70277;54.302;10.064;2023-12-20T05:12:35;100205.34;;;7.46;83.39
3654;BME280;70277;54.302;10.064;2023-12-20T05:15:01;100204.41;;;7.69;82.81
3654;BME280;70277;54.302;10.064;2023-12-20T05:17:28;100195.75;;;7.22;84.27
3654;BME280;70277;54.302;10.064;2023-12-20T05:19:55;100205.94;;;7.48;83.93
3654;BME280;70277;54.302;10.064;2023-12-20T05:22:21;100198.81;;;7.42;83.25
3654;BME280;70277;54.302;10.064;2023-12-20T05:24:48;100196.63;;;7.27;84.57
3654;BME280;70277;54.302;10.064;2023-12-20T05:27:14;100198.13;;;7.35;85.00
3654;BME280;70277;54.302;10.064;2023-12-20T05:29:41;100193.25;;;7.32;84.91
3654;BME280;70277;54.302;10.064;2023-12-20T05:32:07;100186.19;;;7.14;84.13
3654;BME280;70277;54.302;10.064;2023-12-20T05:34:34;100180.44;;;6.82;84.35
3654;BME280;70277;54.302;10.064;2023-12-20T05:37:00;100172.19;;;7.00;83.45
3654;BME280;70277;54.302;10.064;2023-12-20T05:39:28;100158.47;;;6.73;82.76
3654;BME280;70277;54.302;10.064;2023-12-20T05:41:55;100173.25;;;6.99;83.09
3654;BME280;70277;54.302;10.064;2023-12-20T05:44:21;100174.59;;;7.14;82.05
3654;BME280;70277;54.302;10.064;2023-12-20T05:46:48;100177.00;;;7.27;82.36
3654;BME280;70277;54.302;10.064;2023-12-20T05:49:14;100156.63;;;7.02;82.29
3654;BME280;70277;54.302;10.064;2023-12-20T05:51:41;100157.50;;;7.20;82.81
3654;BME280;70277;54.302;10.064;2023-12-20T05:54:09;100153.75;;;7.66;81.66
3654;BME280;70277;54.302;10.064;2023-12-20T05:56:35;100158.50;;;7.31;81.97
3654;BME280;70277;54.302;10.064;2023-12-20T05:59:02;100174.66;;;7.47;82.45
3654;BME280;70277;54.302;10.064;2023-12-20T06:01:29;100160.13;;;7.32;83.21
3654;BME280;70277;54.302;10.064;2023-12-20T06:03:55;100152.44;;;7.23;82.99
3654;BME280;70277;54.302;10.064;2023-12-20T06:06:23;100156.16;;;7.05;84.18
3654;BME280;70277;54.302;10.064;2023-12-20T06:08:50;100127.47;;;6.71;85.16
3654;BME280;70277;54.302;10.064;2023-12-20T06:11:16;100153.16;;;6.90;85.43
3654;BME280;70277;54.302;10.064;2023-12-20T06:13:43;100142.31;;;7.14;84.96
3654;BME280;70277;54.302;10.064;2023-12-20T06:16:10;100140.88;;;7.23;84.09
3654;BME280;70277;54.302;10.064;2023-12-20T06:18:37;100131.88;;;7.17;84.37
3654;BME280;70277;54.302;10.064;2023-12-20T06:21:04;100125.94;;;7.32;83.43
3654;BME280;70277;54.302;10.064;2023-12-20T06:23:31;100127.34;;;7.35;83.47
3654;BME280;70277;54.302;10.064;2023-12-20T06:25:57;100123.41;;;7.25;84.26
3654;BME280;70277;54.302;10.064;2023-12-20T06:28:24;100109.97;;;7.25;83.69
3654;BME280;70277;54.302;10.064;2023-12-20T06:30:50;100101.66;;;7.44;82.69
3654;BME280;70277;54.302;10.064;2023-12-20T06:33:19;100102.31;;;7.68;82.35
3654;BME280;70277;54.302;10.064;2023-12-20T06:35:48;100101.44;;;7.45;82.44
3654;BME280;70277;54.302;10.064;2023-12-20T06:38:14;100103.63;;;7.48;82.05
3654;BME280;70277;54.302;10.064;2023-12-20T06:40:41;100105.06;;;7.39;82.30
3654;BME280;70277;54.302;10.064;2023-12-20T06:43:09;100101.63;;;7.78;81.58
3654;BME280;70277;54.302;10.064;2023-12-20T06:45:49;100101.91;;;7.76;82.55
3654;BME280;70277;54.302;10.064;2023-12-20T06:48:15;100121.56;;;7.93;81.74
3654;BME280;70277;54.302;10.064;2023-12-20T06:50:42;100124.22;;;7.26;83.33
3654;BME280;70277;54.302;10.064;2023-12-20T06:53:09;100116.75;;;7.28;82.90
3654;BME280;70277;54.302;10.064;2023-12-20T06:55:36;100112.97;;;7.29;82.66
3654;BME280;70277;54.302;10.064;2023-12-20T06:58:04;100114.72;;;7.52;82.00
3654;BME280;70277;54.302;10.064;2023-12-20T07:00:31;100113.31;;;7.49;82.56
3654;BME280;70277;54.302;10.064;2023-12-20T07:02:58;100105.47;;;7.48;82.48
3654;BME280;70277;54.302;10.064;2023-12-20T07:05:25;100091.66;;;7.11;83.07
3654;BME280;70277;54.302;10.064;2023-12-20T07:07:52;100108.09;;;7.26;83.68
3654;BME280;70277;54.302;10.064;2023-12-20T07:10:20;100085.09;;;7.35;82.66
3654;BME280;70277;54.302;10.064;2023-12-20T07:12:46;100089.06;;;7.83;81.96
3654;BME280;70277;54.302;10.064;2023-12-20T07:15:15;100086.41;;;7.49;82.86
3654;BME280;70277;54.302;10.064;2023-12-20T07:17:41;100082.72;;;7.56;81.61
3654;BME280;70277;54.302;10.064;2023-12-20T07:20:10;100067.34;;;7.05;82.82
3654;BME280;70277;54.302;10.064;2023-12-20T07:22:37;100073.44;;;7.46;82.81
3654;BME280;70277;54.302;10.064;2023-12-20T07:25:04;100067.97;;;7.58;81.95
3654;BME280;70277;54.302;10.064;2023-12-20T07:27:31;100066.56;;;7.39;82.21
3654;BME280;70277;54.302;10.064;2023-12-20T07:29:57;100057.84;;;7.32;83.09
3654;BME280;70277;54.302;10.064;2023-12-20T07:32:24;100067.97;;;7.41;82.80
3654;BME280;70277;54.302;10.064;2023-12-20T07:34:51;100056.59;;;7.05;82.95
3654;BME280;70277;54.302;10.064;2023-12-20T07:37:17;100056.69;;;7.11;83.75
3654;BME280;70277;54.302;10.064;2023-12-20T07:39:44;100057.19;;;7.07;83.01
3654;BME280;70277;54.302;10.064;2023-12-20T07:42:10;100056.53;;;7.51;82.43
3654;BME280;70277;54.302;10.064;2023-12-20T07:44:37;100049.53;;;7.16;83.20
3654;BME280;70277;54.302;10.064;2023-12-20T07:47:04;100047.47;;;7.23;83.53
3654;BME280;70277;54.302;10.064;2023-12-20T07:49:31;100043.00;;;7.29;82.26
3654;BME280;70277;54.302;10.064;2023-12-20T07:51:58;100042.50;;;7.15;83.07
3654;BME280;70277;54.302;10.064;2023-12-20T07:54:25;100035.81;;;7.18;82.21
3654;BME280;70277;54.302;10.064;2023-12-20T07:56:52;100029.31;;;7.31;82.49
3654;BME280;70277;54.302;10.064;2023-12-20T07:59:18;100022.13;;;7.19;83.52
3654;BME280;70277;54.302;10.064;2023-12-20T08:01:57;100030.41;;;7.01;84.01
3654;BME280;70277;54.302;10.064;2023-12-20T08:04:24;100044.47;;;7.53;83.08
3654;BME280;70277;54.302;10.064;2023-12-20T08:06:51;100054.31;;;7.14;83.70
3654;BME280;70277;54.302;10.064;2023-12-20T08:09:18;100027.44;;;6.86;83.26
3654;BME280;70277;54.302;10.064;2023-12-20T08:11:46;100035.69;;;6.79;83.57
3654;BME280;70277;54.302;10.064;2023-12-20T08:14:13;99986.78;;;6.82;83.79
3654;BME280;70277;54.302;10.064;2023-12-20T08:16:42;99999.41;;;6.81;83.65
3654;BME280;70277;54.302;10.064;2023-12-20T08:19:09;99995.22;;;7.02;83.29
3654;BME280;70277;54.302;10.064;2023-12-20T08:21:36;99986.41;;;6.90;82.78
3654;BME280;70277;54.302;10.064;2023-12-20T08:24:04;99985.22;;;6.86;82.74
3654;BME280;70277;54.302;10.064;2023-12-20T08:26:32;99976.50;;;6.79;82.33
3654;BME280;70277;54.302;10.064;2023-12-20T08:28:58;100017.63;;;7.42;81.59
3654;BME280;70277;54.302;10.064;2023-12-20T08:31:28;100034.50;;;7.54;81.68
3654;BME280;70277;54.302;10.064;2023-12-20T08:33:55;100050.91;;;7.19;82.88
3654;BME280;70277;54.302;10.064;2023-12-20T08:36:23;100052.16;;;6.82;84.06
3654;BME280;70277;54.302;10.064;2023-12-20T08:38:50;100046.91;;;7.21;83.92
3654;BME280;70277;54.302;10.064;2023-12-20T08:41:17;100038.47;;;6.84;84.38
3654;BME280;70277;54.302;10.064;2023-12-20T08:43:44;100007.56;;;6.70;84.17
3654;BME280;70277;54.302;10.064;2023-12-20T08:46:11;99990.06;;;6.55;83.50
3654;BME280;70277;54.302;10.064;2023-12-20T08:48:38;99978.41;;;6.78;82.09
3654;BME280;70277;54.302;10.064;2023-12-20T08:51:05;99966.56;;;6.34;82.46
3654;BME280;70277;54.302;10.064;2023-12-20T08:53:35;99971.94;;;6.34;82.03
3654;BME280;70277;54.302;10.064;2023-12-20T08:56:02;99986.72;;;6.20;82.72
3654;BME280;70277;54.302;10.064;2023-12-20T08:58:29;99989.53;;;6.13;82.85
3654;BME280;70277;54.302;10.064;2023-12-20T09:00:56;99988.41;;;6.37;82.44
3654;BME280;70277;54.302;10.064;2023-12-20T09:03:24;100008.53;;;6.64;81.98
3654;BME280;70277;54.302;10.064;2023-12-20T09:05:50;100019.63;;;6.27;82.56
3654;BME280;70277;54.302;10.064;2023-12-20T09:08:17;100019.00;;;5.96;82.49
3654;BME280;70277;54.302;10.064;2023-12-20T09:10:44;100023.19;;;6.15;82.12
3654;BME280;70277;54.302;10.064;2023-12-20T09:13:11;100017.53;;;6.29;82.15
3654;BME280;70277;54.302;10.064;2023-12-20T09:15:38;100029.06;;;6.01;82.78
3654;BME280;70277;54.302;10.064;2023-12-20T09:18:04;100035.06;;;6.20;82.87
3654;BME280;70277;54.302;10.064;2023-12-20T09:20:31;100038.75;;;6.42;81.55
3654;BME280;70277;54.302;10.064;2023-12-20T09:22:59;100054.66;;;6.32;82.17
3654;BME280;70277;54.302;10.064;2023-12-20T09:25:26;100056.53;;;6.31;82.63
3654;BME280;70277;54.302;10.064;2023-12-20T09:27:53;100060.91;;;5.97;83.12
3654;BME280;70277;54.302;10.064;2023-12-20T09:30:20;100067.44;;;5.89;83.09
3654;BME280;70277;54.302;10.064;2023-12-20T09:32:54;100060.31;;;6.19;82.83
3654;BME280;70277;54.302;10.064;2023-12-20T09:35:21;100069.66;;;6.56;82.30
3654;BME280;70277;54.302;10.064;2023-12-20T09:37:48;100071.53;;;6.56;81.70
3654;BME280;70277;54.302;10.064;2023-12-20T09:40:17;100075.06;;;6.04;82.52
3654;BME280;70277;54.302;10.064;2023-12-20T09:42:56;100080.28;;;6.23;82.50
3654;BME280;70277;54.302;10.064;2023-12-20T09:45:24;100082.56;;;6.43;82.43
3654;BME280;70277;54.302;10.064;2023-12-20T09:47:53;100088.47;;;5.92;83.85
3654;BME280;70277;54.302;10.064;2023-12-20T09:50:23;100085.81;;;6.04;83.14
3654;BME280;70277;54.302;10.064;2023-12-20T09:52:51;100082.53;;;6.02;83.07
3654;BME280;70277;54.302;10.064;2023-12-20T09:55:18;100086.13;;;5.73;82.93
3654;BME280;70277;54.302;10.064;2023-12-20T09:57:46;100079.22;;;6.12;83.21
3654;BME280;70277;54.302;10.064;2023-12-20T10:00:14;100074.81;;;6.06;83.04
3654;BME280;70277;54.302;10.064;2023-12-20T10:02:50;100068.75;;;6.10;82.40
3654;BME280;70277;54.302;10.064;2023-12-20T10:05:17;100076.88;;;6.39;82.80
3654;BME280;70277;54.302;10.064;2023-12-20T10:07:48;100070.16;;;6.82;81.88
3654;BME280;70277;54.302;10.064;2023-12-20T10:10:15;100083.44;;;6.89;81.56
3654;BME280;70277;54.302;10.064;2023-12-20T10:13:01;100073.31;;;7.07;80.75
3654;BME280;70277;54.302;10.064;2023-12-20T10:15:27;100072.03;;;7.10;80.19
3654;BME280;70277;54.302;10.064;2023-12-20T10:17:54;100069.59;;;7.25;79.99
3654;BME280;70277;54.302;10.064;2023-12-20T10:20:26;100059.13;;;7.80;78.96
3654;BME280;70277;54.302;10.064;2023-12-20T10:22:55;100073.19;;;7.65;79.25
3654;BME280;70277;54.302;10.064;2023-12-20T10:25:23;100063.72;;;7.62;79.64
3654;BME280;70277;54.302;10.064;2023-12-20T10:27:51;100078.31;;;7.33;80.69
3654;BME280;70277;54.302;10.064;2023-12-20T10:30:34;100072.00;;;6.93;81.87
3654;BME280;70277;54.302;10.064;2023-12-20T10:33:01;100062.84;;;6.37;82.69
3654;BME280;70277;54.302;10.064;2023-12-20T10:35:27;100064.16;;;6.23;83.64
3654;BME280;70277;54.302;10.064;2023-12-20T10:37:55;100068.09;;;6.32;83.38
3654;BME280;70277;54.302;10.064;2023-12-20T10:40:26;100061.41;;;6.46;84.36
3654;BME280;70277;54.302;10.064;2023-12-20T10:42:54;100063.44;;;6.68;83.59
3654;BME280;70277;54.302;10.064;2023-12-20T10:45:22;100065.47;;;6.89;82.89
3654;BME280;70277;54.302;10.064;2023-12-20T10:47:50;100052.88;;;6.78;83.52
3654;BME280;70277;54.302;10.064;2023-12-20T10:50:19;100048.09;;;6.97;84.09
3654;BME280;70277;54.302;10.064;2023-12-20T10:52:47;100055.19;;;7.87;80.92
3654;BME280;70277;54.302;10.064;2023-12-20T10:55:14;100055.97;;;8.05;79.29
3654;BME280;70277;54.302;10.064;2023-12-20T10:57:41;100048.53;;;7.73;78.61
3654;BME280;70277;54.302;10.064;2023-12-20T11:00:13;100053.84;;;7.51;78.58
3654;BME280;70277;54.302;10.064;2023-12-20T11:02:42;100039.81;;;6.98;80.51
3654;BME280;70277;54.302;10.064;2023-12-20T11:08:02;100035.63;;;6.91;79.03
3654;BME280;70277;54.302;10.064;2023-12-20T11:13:30;100042.88;;;8.57;73.54
3654;BME280;70277;54.302;10.064;2023-12-20T11:15:59;100033.59;;;9.29;72.34
3654;BME280;70277;54.302;10.064;2023-12-20T11:18:29;100045.09;;;9.52;69.24
3654;BME280;70277;54.302;10.064;2023-12-20T11:21:01;100029.19;;;9.98;69.35
3654;BME280;70277;54.302;10.064;2023-12-20T11:23:30;100028.16;;;10.04;68.94
3654;BME280;70277;54.302;10.064;2023-12-20T11:25:57;100029.69;;;10.42;68.24
3654;BME280;70277;54.302;10.064;2023-12-20T11:28:26;100026.88;;;9.69;69.05
3654;BME280;70277;54.302;10.064;2023-12-20T11:30:54;100029.13;;;9.88;69.84
3654;BME280;70277;54.302;10.064;2023-12-20T11:33:26;100032.72;;;9.56;69.17
3654;BME280;70277;54.302;10.064;2023-12-20T11:35:56;100032.47;;;9.25;71.25
3654;BME280;70277;54.302;10.064;2023-12-20T11:38:23;100033.72;;;9.45;72.02
3654;BME280;70277;54.302;10.064;2023-12-20T11:40:54;100028.88;;;8.82;71.98
3654;BME280;70277;54.302;10.064;2023-12-20T11:43:39;100038.44;;;8.68;72.48
3654;BME280;70277;54.302;10.064;2023-12-20T11:46:08;100044.81;;;9.11;71.06
3654;BME280;70277;54.302;10.064;2023-12-20T11:48:38;100031.59;;;9.52;70.27
3654;BME280;70277;54.302;10.064;2023-12-20T11:51:12;100032.88;;;9.82;69.65
3654;BME280;70277;54.302;10.064;2023-12-20T11:53:40;100043.34;;;9.68;67.55
3654;BME280;70277;54.302;10.064;2023-12-20T11:56:07;100022.47;;;10.06;68.08
3654;BME280;70277;54.302;10.064;2023-12-20T11:58:34;100020.59;;;11.15;66.42
3654;BME280;70277;54.302;10.064;2023-12-20T12:01:02;100026.81;;;10.90;63.58
3654;BME280;70277;54.302;10.064;2023-12-20T12:03:29;100035.25;;;10.25;66.25
3654;BME280;70277;54.302;10.064;2023-12-20T12:05:55;100031.38;;;9.21;67.82
3654;BME280;70277;54.302;10.064;2023-12-20T12:08:22;100029.03;;;8.49;69.97
3654;BME280;70277;54.302;10.064;2023-12-20T12:10:49;100033.25;;;8.88;71.00
3654;BME280;70277;54.302;10.064;2023-12-20T12:13:15;100042.63;;;9.13;68.83
3654;BME280;70277;54.302;10.064;2023-12-20T12:15:42;100038.72;;;9.63;68.91
3654;BME280;70277;54.302;10.064;2023-12-20T12:18:09;100030.91;;;9.67;68.19
3654;BME280;70277;54.302;10.064;2023-12-20T12:20:36;100029.34;;;9.39;66.77
3654;BME280;70277;54.302;10.064;2023-12-20T12:23:05;100039.53;;;10.11;67.49
3654;BME280;70277;54.302;10.064;2023-12-20T12:25:35;100028.41;;;10.60;65.12
3654;BME280;70277;54.302;10.064;2023-12-20T12:28:08;100031.16;;;10.13;66.80
3654;BME280;70277;54.302;10.064;2023-12-20T12:30:35;100027.25;;;10.41;65.77
3654;BME280;70277;54.302;10.064;2023-12-20T12:33:11;100032.22;;;10.75;65.12
3654;BME280;70277;54.302;10.064;2023-12-20T12:35:38;100036.41;;;10.30;64.08
3654;BME280;70277;54.302;10.064;2023-12-20T12:38:07;100024.53;;;9.41;65.74
3654;BME280;70277;54.302;10.064;2023-12-20T12:40:35;100042.97;;;9.22;66.46
3654;BME280;70277;54.302;10.064;2023-12-20T12:43:02;100036.84;;;9.31;67.59
3654;BME280;70277;54.302;10.064;2023-12-20T12:45:30;100046.88;;;9.04;67.96
3654;BME280;70277;54.302;10.064;2023-12-20T12:47:57;100044.34;;;8.65;67.95
3654;BME280;70277;54.302;10.064;2023-12-20T12:50:24;100052.59;;;8.80;68.83
3654;BME280;70277;54.302;10.064;2023-12-20T12:52:50;100055.88;;;9.84;65.78
3654;BME280;70277;54.302;10.064;2023-12-20T12:55:17;100052.63;;;9.87;64.67
3654;BME280;70277;54.302;10.064;2023-12-20T12:57:43;100048.75;;;10.15;64.08
3654;BME280;70277;54.302;10.064;2023-12-20T13:00:11;100054.41;;;10.14;64.26
3654;BME280;70277;54.302;10.064;2023-12-20T13:02:37;100059.59;;;10.88;63.81
3654;BME280;70277;54.302;10.064;2023-12-20T13:05:08;100045.72;;;10.59;62.81
3654;BME280;70277;54.302;10.064;2023-12-20T13:07:35;100046.47;;;10.44;62.64